createdAt,value
2024-01-25T00:00:10.660Z,5.63
2024-01-25T00:02:58.150Z,5.62
2024-01-25T00:05:25.956Z,5.62
2024-01-25T00:07:53.914Z,5.62
2024-01-25T00:10:21.516Z,5.65
2024-01-25T00:12:49.282Z,5.64
2024-01-25T00:15:16.980Z,5.63
2024-01-25T00:17:44.465Z,5.62
2024-01-25T00:20:12.196Z,5.62
2024-01-25T00:22:40.222Z,5.62
2024-01-25T00:25:07.911Z,5.62
2024-01-25T00:27:35.529Z,5.61
2024-01-25T00:30:03.088Z,5.59
2024-01-25T00:32:30.629Z,5.60
2024-01-25T00:34:58.380Z,5.62
2024-01-25T00:37:26.020Z,5.62
2024-01-25T00:39:54.457Z,5.62
2024-01-25T00:42:22.040Z,5.62
2024-01-25T00:44:49.515Z,5.64
2024-01-25T00:47:17.011Z,5.66
2024-01-25T00:49:44.680Z,5.66
2024-01-25T00:52:12.293Z,5.66
2024-01-25T00:54:39.868Z,5.64
2024-01-25T00:57:07.406Z,5.65
2024-01-25T00:59:34.912Z,5.69
2024-01-25T01:02:05.921Z,5.70
2024-01-25T01:04:46.820Z,5.72
2024-01-25T01:07:16.614Z,5.73
2024-01-25T01:09:44.460Z,5.74
2024-01-25T01:12:12.643Z,5.77
2024-01-25T01:14:40.147Z,5.78
2024-01-25T01:17:07.797Z,5.80
2024-01-25T01:19:35.401Z,5.78
2024-01-25T01:22:03.152Z,5.78
2024-01-25T01:24:30.837Z,5.78
2024-01-25T01:26:58.382Z,5.79
2024-01-25T01:29:25.847Z,5.79
2024-01-25T01:31:53.360Z,5.79
2024-01-25T01:34:21.050Z,5.78
2024-01-25T01:36:48.766Z,5.78
2024-01-25T01:39:16.268Z,5.79
2024-01-25T01:41:43.825Z,5.82
2024-01-25T01:44:11.804Z,5.83
2024-01-25T01:46:39.315Z,5.84
2024-01-25T01:49:07.043Z,5.83
2024-01-25T01:51:34.690Z,5.82
2024-01-25T01:54:02.255Z,5.82
2024-01-25T01:56:29.746Z,5.85
2024-01-25T01:58:57.624Z,5.84
2024-01-25T02:01:25.317Z,5.84
2024-01-25T02:03:53.037Z,5.83
2024-01-25T02:06:20.918Z,5.82
2024-01-25T02:08:48.441Z,5.83
2024-01-25T02:11:16.004Z,5.82
2024-01-25T02:13:43.566Z,5.80
2024-01-25T02:16:11.929Z,5.78
2024-01-25T02:18:39.789Z,5.78
2024-01-25T02:21:07.374Z,5.81
2024-01-25T02:23:35.026Z,5.81
2024-01-25T02:26:02.560Z,5.81
2024-01-25T02:28:30.433Z,5.80
2024-01-25T02:30:58.187Z,5.76
2024-01-25T02:33:25.851Z,5.74
2024-01-25T02:35:53.755Z,5.73
2024-01-25T02:38:21.328Z,5.75
2024-01-25T02:40:48.795Z,5.76
2024-01-25T02:43:16.596Z,5.75
2024-01-25T02:45:44.313Z,5.73
2024-01-25T02:48:12.003Z,5.73
2024-01-25T02:50:39.748Z,5.70
2024-01-25T02:53:07.258Z,5.69
2024-01-25T02:55:34.732Z,5.71
2024-01-25T02:58:02.248Z,5.72
2024-01-25T03:00:29.871Z,5.72
2024-01-25T03:02:57.414Z,5.71
2024-01-25T03:05:25.300Z,5.70
2024-01-25T03:07:52.939Z,5.66
2024-01-25T03:10:20.885Z,5.70
2024-01-25T03:12:48.408Z,5.71
2024-01-25T03:15:15.962Z,5.70
2024-01-25T03:17:43.601Z,5.70
2024-01-25T03:20:11.390Z,5.69
2024-01-25T03:22:39.069Z,5.69
2024-01-25T03:25:06.597Z,5.69
2024-01-25T03:27:34.431Z,5.68
2024-01-25T03:30:02.062Z,5.70
2024-01-25T03:32:32.414Z,5.71
2024-01-25T03:35:00.324Z,5.69
2024-01-25T03:37:28.195Z,5.67
2024-01-25T03:39:55.714Z,5.63
2024-01-25T03:42:23.235Z,5.60
2024-01-25T03:44:50.808Z,5.57
2024-01-25T03:47:18.314Z,5.59
2024-01-25T03:49:45.837Z,5.60
2024-01-25T03:52:13.642Z,5.60
2024-01-25T03:54:41.281Z,5.60
2024-01-25T03:57:08.857Z,5.60
2024-01-25T03:59:36.428Z,5.59
2024-01-25T04:02:04.058Z,5.58
2024-01-25T04:04:31.692Z,5.58
2024-01-25T04:06:59.425Z,5.58
2024-01-25T04:09:27.046Z,5.59
2024-01-25T04:11:54.551Z,5.59
2024-01-25T04:14:22.290Z,5.58
2024-01-25T04:16:49.774Z,5.56
2024-01-25T04:19:18.484Z,5.56
2024-01-25T04:21:46.229Z,5.56
2024-01-25T04:24:13.785Z,5.56
2024-01-25T04:26:41.436Z,5.56
2024-01-25T04:29:09.627Z,5.59
2024-01-25T04:31:37.229Z,5.60
2024-01-25T04:34:04.765Z,5.59
2024-01-25T04:36:32.471Z,5.58
2024-01-25T04:39:00.061Z,5.56
2024-01-25T04:41:27.568Z,5.55
2024-01-25T04:43:55.124Z,5.55
2024-01-25T04:46:22.812Z,5.52
2024-01-25T04:48:50.441Z,5.49
2024-01-25T04:51:18.100Z,5.48
2024-01-25T04:53:45.919Z,5.46
2024-01-25T04:56:13.427Z,5.48
2024-01-25T04:58:41.004Z,5.51
2024-01-25T05:01:08.766Z,5.51
2024-01-25T05:03:36.457Z,5.51
2024-01-25T05:06:04.156Z,5.51
2024-01-25T05:08:31.795Z,5.51
2024-01-25T05:10:59.286Z,5.50
2024-01-25T05:13:26.951Z,5.53
2024-01-25T05:15:54.550Z,5.52
2024-01-25T05:18:22.656Z,5.50
2024-01-25T05:20:50.451Z,5.49
2024-01-25T05:23:18.010Z,5.46
2024-01-25T05:25:45.936Z,5.43
2024-01-25T05:28:13.464Z,5.42
2024-01-25T05:30:41.030Z,5.37
2024-01-25T05:33:08.727Z,5.31
2024-01-25T05:35:37.041Z,5.26
2024-01-25T05:38:04.569Z,5.22
2024-01-25T05:40:32.140Z,5.23
2024-01-25T05:42:59.752Z,5.23
2024-01-25T05:45:27.294Z,5.21
2024-01-25T05:47:54.886Z,5.21
2024-01-25T05:50:22.698Z,5.20
2024-01-25T05:52:50.250Z,5.20
2024-01-25T05:55:18.534Z,5.23
2024-01-25T05:57:46.337Z,5.27
2024-01-25T06:00:13.896Z,5.28
2024-01-25T06:02:41.405Z,5.30
2024-01-25T06:05:09.258Z,5.30
2024-01-25T06:07:37.077Z,5.30
2024-01-25T06:10:04.801Z,5.33
2024-01-25T06:12:32.641Z,5.34
2024-01-25T06:15:00.242Z,5.30
2024-01-25T06:17:27.884Z,5.28
2024-01-25T06:19:55.469Z,5.26
2024-01-25T06:22:23.528Z,5.27
2024-01-25T06:24:51.093Z,5.25
2024-01-25T06:27:19.026Z,5.22
2024-01-25T06:29:46.551Z,5.17
2024-01-25T06:32:19.340Z,5.15
2024-01-25T06:34:54.213Z,5.15
2024-01-25T06:37:22.014Z,5.11
2024-01-25T06:39:49.555Z,5.09
2024-01-25T06:42:17.641Z,5.07
2024-01-25T06:44:45.182Z,5.07
2024-01-25T06:47:12.856Z,5.07
2024-01-25T06:49:40.502Z,5.07
2024-01-25T06:52:08.420Z,5.06
2024-01-25T06:54:36.049Z,5.07
2024-01-25T06:57:03.578Z,5.09
2024-01-25T06:59:31.113Z,5.10
2024-01-25T07:01:59.660Z,5.10
2024-01-25T07:04:27.769Z,5.09
2024-01-25T07:06:55.997Z,5.11
2024-01-25T07:09:23.783Z,5.12
2024-01-25T07:11:51.286Z,5.12
2024-01-25T07:14:18.878Z,5.11
2024-01-25T07:16:46.582Z,5.11
2024-01-25T07:19:14.420Z,5.12
2024-01-25T07:21:42.075Z,5.10
2024-01-25T07:24:09.608Z,5.06
2024-01-25T07:26:37.110Z,5.02
2024-01-25T07:29:04.580Z,5.00
2024-01-25T07:31:32.417Z,4.97
2024-01-25T07:34:00.049Z,4.93
2024-01-25T07:36:27.636Z,4.89
2024-01-25T07:38:55.192Z,4.89
2024-01-25T07:41:22.668Z,4.88
2024-01-25T07:43:50.261Z,4.84
2024-01-25T07:46:19.242Z,4.79
2024-01-25T07:48:46.856Z,4.75
2024-01-25T07:51:14.873Z,4.73
2024-01-25T07:53:42.701Z,4.68
2024-01-25T07:56:10.255Z,4.66
2024-01-25T07:58:37.947Z,4.65
2024-01-25T08:01:05.578Z,4.67
2024-01-25T08:03:33.420Z,4.66
2024-01-25T08:06:01.174Z,4.65
2024-01-25T08:08:28.749Z,4.62
2024-01-25T08:10:56.273Z,4.62
2024-01-25T08:13:24.281Z,4.61
2024-01-25T08:15:52.051Z,4.59
2024-01-25T08:18:19.782Z,4.57
2024-01-25T08:20:47.587Z,4.59
2024-01-25T08:23:15.357Z,4.59
2024-01-25T08:25:43.009Z,4.58
2024-01-25T08:28:10.713Z,4.59
2024-01-25T08:30:38.873Z,4.61
2024-01-25T08:33:06.624Z,4.63
2024-01-25T08:35:34.570Z,4.64
2024-01-25T08:38:02.431Z,4.64
2024-01-25T08:40:30.963Z,4.66
2024-01-25T08:42:58.838Z,4.69
2024-01-25T08:45:26.387Z,4.71
2024-01-25T08:47:54.044Z,4.71
2024-01-25T08:50:24.002Z,4.72
2024-01-25T08:52:51.839Z,4.77
2024-01-25T08:55:20.794Z,4.79
2024-01-25T08:57:48.456Z,4.81
2024-01-25T09:00:16.552Z,4.82
2024-01-25T09:02:44.124Z,4.85
2024-01-25T09:05:11.856Z,4.86
2024-01-25T09:07:39.722Z,4.87
2024-01-25T09:10:07.644Z,4.86
2024-01-25T09:12:35.274Z,4.88
2024-01-25T09:15:02.884Z,4.89
2024-01-25T09:17:30.531Z,4.84
2024-01-25T09:19:58.202Z,4.80
2024-01-25T09:22:25.825Z,4.75
2024-01-25T09:24:53.736Z,4.74
2024-01-25T09:27:21.247Z,4.70
2024-01-25T09:29:48.901Z,4.67
2024-01-25T09:32:16.845Z,4.68
2024-01-25T09:34:44.450Z,4.68
2024-01-25T09:37:12.641Z,4.67
2024-01-25T09:39:40.679Z,4.66
2024-01-25T09:42:08.604Z,4.65
2024-01-25T09:44:36.144Z,4.68
2024-01-25T09:47:03.739Z,4.69
2024-01-25T09:49:31.816Z,4.70
2024-01-25T09:51:59.683Z,4.70
2024-01-25T09:54:28.493Z,4.73
2024-01-25T09:56:57.370Z,4.73
2024-01-25T09:59:24.890Z,4.75
2024-01-25T10:01:52.602Z,4.75
2024-01-25T10:04:20.366Z,4.80
2024-01-25T10:06:49.010Z,4.83
2024-01-25T10:09:16.682Z,4.84
2024-01-25T10:11:47.574Z,4.87
2024-01-25T10:14:21.983Z,4.90
2024-01-25T10:16:49.675Z,4.97
2024-01-25T10:19:17.804Z,5.02
2024-01-25T10:21:45.873Z,5.05
2024-01-25T10:24:13.798Z,5.07
2024-01-25T10:26:41.342Z,5.08
2024-01-25T10:29:09.012Z,5.13
2024-01-25T10:31:36.808Z,5.18
2024-01-25T10:34:04.483Z,5.19
2024-01-25T10:36:32.186Z,5.20
2024-01-25T10:38:59.917Z,5.20
2024-01-25T10:41:29.209Z,5.24
2024-01-25T10:43:57.321Z,5.25
2024-01-25T10:46:25.114Z,5.26
2024-01-25T10:48:53.104Z,5.27
2024-01-25T10:51:20.669Z,5.27
2024-01-25T10:53:48.249Z,5.31
2024-01-25T10:56:15.751Z,5.32
2024-01-25T10:58:43.551Z,5.33
2024-01-25T11:01:14.298Z,5.32
2024-01-25T11:03:43.956Z,5.31
2024-01-25T11:06:11.933Z,5.34
2024-01-25T11:08:39.604Z,5.37
2024-01-25T11:11:07.139Z,5.37
2024-01-25T11:13:35.011Z,5.35
2024-01-25T11:16:03.081Z,5.36
2024-01-25T11:18:31.855Z,5.39
2024-01-25T11:21:01.030Z,5.40
2024-01-25T11:23:29.043Z,5.40
2024-01-25T11:25:57.130Z,5.40
2024-01-25T11:28:25.384Z,5.40
2024-01-25T11:30:53.825Z,5.42
2024-01-25T11:33:21.447Z,5.41
2024-01-25T11:35:49.084Z,5.41
2024-01-25T11:38:16.655Z,5.39
2024-01-25T11:40:44.177Z,5.39
2024-01-25T11:43:12.390Z,5.41
2024-01-25T11:45:40.523Z,5.42
2024-01-25T11:48:08.122Z,5.41
2024-01-25T11:50:36.200Z,5.40
2024-01-25T11:53:03.863Z,5.38
2024-01-25T11:55:31.407Z,5.39
2024-01-25T11:57:59.019Z,5.39
2024-01-25T12:00:26.503Z,5.37
2024-01-25T12:02:53.992Z,5.37
2024-01-25T12:05:21.861Z,5.34
2024-01-25T12:07:49.823Z,5.35
2024-01-25T12:10:17.585Z,5.36
2024-01-25T12:12:45.556Z,5.34
2024-01-25T12:15:13.098Z,5.32
2024-01-25T12:17:41.159Z,5.30
2024-01-25T12:20:09.071Z,5.31
2024-01-25T12:22:38.367Z,5.31
2024-01-25T12:25:06.172Z,5.30
2024-01-25T12:27:33.997Z,5.29
2024-01-25T12:30:01.608Z,5.28
2024-01-25T12:32:29.212Z,5.30
2024-01-25T12:34:57.230Z,5.31
2024-01-25T12:37:24.957Z,5.30
2024-01-25T12:39:52.995Z,5.29
2024-01-25T12:42:21.313Z,5.28
2024-01-25T12:44:48.821Z,5.30
2024-01-25T12:47:16.868Z,5.33
2024-01-25T12:49:44.428Z,5.32
2024-01-25T12:52:12.067Z,5.31
2024-01-25T12:54:39.644Z,5.29
2024-01-25T12:57:07.553Z,5.32
2024-01-25T12:59:35.429Z,5.33
2024-01-25T13:02:02.917Z,5.33
2024-01-25T13:04:30.683Z,5.32
2024-01-25T13:06:58.519Z,5.33
2024-01-25T13:09:26.423Z,5.36
2024-01-25T13:11:54.725Z,5.34
2024-01-25T13:14:22.331Z,5.33
2024-01-25T13:16:49.903Z,5.34
2024-01-25T13:19:17.406Z,5.35
2024-01-25T13:21:45.399Z,5.38
2024-01-25T13:24:12.985Z,5.38
2024-01-25T13:26:40.498Z,5.37
2024-01-25T13:29:08.176Z,5.35
2024-01-25T13:31:35.653Z,5.35
2024-01-25T13:34:03.368Z,5.37
2024-01-25T13:36:31.244Z,5.36
2024-01-25T13:38:58.821Z,5.33
2024-01-25T13:41:26.382Z,5.29
2024-01-25T13:43:53.939Z,5.28
2024-01-25T13:46:23.158Z,5.30
2024-01-25T13:48:51.836Z,5.29
2024-01-25T13:51:19.457Z,5.27
2024-01-25T13:53:47.079Z,5.24
2024-01-25T13:56:14.560Z,5.23
2024-01-25T13:58:42.217Z,5.25
2024-01-25T14:01:10.166Z,5.24
2024-01-25T14:03:38.240Z,5.21
2024-01-25T14:06:06.088Z,5.19
2024-01-25T14:08:34.025Z,5.20
2024-01-25T14:11:01.690Z,5.21
2024-01-25T14:13:29.482Z,5.19
2024-01-25T14:15:57.235Z,5.19
2024-01-25T14:18:25.275Z,5.17
2024-01-25T14:20:53.091Z,5.20
2024-01-25T14:23:21.070Z,5.20
2024-01-25T14:25:49.029Z,5.18
2024-01-25T14:28:17.234Z,5.16
2024-01-25T14:30:45.966Z,5.15
2024-01-25T14:33:13.678Z,5.17
2024-01-25T14:35:41.404Z,5.15
2024-01-25T14:38:09.516Z,5.12
2024-01-25T14:40:49.702Z,5.12
2024-01-25T14:43:24.922Z,5.12
2024-01-25T14:45:52.954Z,5.13
2024-01-25T14:48:20.810Z,5.13
2024-01-25T14:50:49.081Z,5.13
2024-01-25T14:53:16.794Z,5.10
2024-01-25T14:55:44.648Z,5.11
2024-01-25T14:58:12.413Z,5.12
2024-01-25T15:00:40.082Z,5.10
2024-01-25T15:03:08.011Z,5.07
2024-01-25T15:05:35.743Z,5.04
2024-01-25T15:08:03.435Z,5.06
2024-01-25T15:10:31.236Z,5.08
2024-01-25T15:12:58.941Z,5.07
2024-01-25T15:15:26.705Z,5.05
2024-01-25T15:17:54.433Z,5.04
2024-01-25T15:20:22.126Z,5.04
2024-01-25T15:22:49.697Z,5.06
2024-01-25T15:25:17.408Z,5.04
2024-01-25T15:27:45.021Z,5.03
2024-01-25T15:30:12.797Z,5.01
2024-01-25T15:32:40.648Z,5.01
2024-01-25T15:35:08.775Z,5.03
2024-01-25T15:37:36.639Z,5.02
2024-01-25T15:40:04.507Z,5.01
2024-01-25T15:42:32.492Z,4.99
2024-01-25T15:45:00.523Z,4.97
2024-01-25T15:47:28.264Z,4.98
2024-01-25T15:49:56.328Z,4.96
2024-01-25T15:52:24.175Z,4.94
2024-01-25T15:54:51.994Z,4.94
2024-01-25T15:57:19.983Z,4.94
2024-01-25T15:59:47.539Z,4.96
2024-01-25T16:02:15.147Z,4.95
2024-01-25T16:04:42.775Z,4.93
2024-01-25T16:07:10.437Z,4.91
2024-01-25T16:09:37.937Z,4.91
2024-01-25T16:12:05.952Z,4.92
2024-01-25T16:14:33.503Z,4.92
2024-01-25T16:17:00.977Z,4.90
2024-01-25T16:19:28.570Z,4.88
2024-01-25T16:21:56.248Z,4.88
2024-01-25T16:24:23.817Z,4.88
2024-01-25T16:26:51.355Z,4.85
2024-01-25T16:29:19.211Z,4.85
2024-01-25T16:31:46.811Z,4.84
2024-01-25T16:34:14.430Z,4.86
2024-01-25T16:36:42.102Z,4.85
2024-01-25T16:39:09.660Z,4.83
2024-01-25T16:41:37.157Z,4.81
2024-01-25T16:44:04.673Z,4.81
2024-01-25T16:46:32.201Z,4.83
2024-01-25T16:49:00.569Z,4.81
2024-01-25T16:51:28.226Z,4.79
2024-01-25T16:53:55.733Z,4.77
2024-01-25T16:56:23.221Z,4.80
2024-01-25T16:58:50.843Z,4.80
2024-01-25T17:01:18.480Z,4.78
2024-01-25T17:03:46.113Z,4.76
2024-01-25T17:06:13.856Z,4.75
2024-01-25T17:08:41.535Z,4.74
2024-01-25T17:11:09.099Z,4.75
2024-01-25T17:13:36.637Z,4.76
2024-01-25T17:16:04.145Z,4.74
2024-01-25T17:18:31.744Z,4.73
2024-01-25T17:20:59.276Z,4.72
2024-01-25T17:23:26.825Z,4.72
2024-01-25T17:25:54.334Z,4.73
2024-01-25T17:28:22.488Z,4.72
2024-01-25T17:30:50.315Z,4.70
2024-01-25T17:33:18.177Z,4.69
2024-01-25T17:35:45.873Z,4.70
2024-01-25T17:38:13.510Z,4.71
2024-01-25T17:40:41.874Z,4.69
2024-01-25T17:43:09.441Z,4.67
2024-01-25T17:45:37.013Z,4.64
2024-01-25T17:48:04.647Z,4.64
2024-01-25T17:50:32.247Z,4.63
2024-01-25T17:52:59.774Z,4.61
2024-01-25T17:55:27.322Z,4.58
2024-01-25T17:57:54.914Z,4.57
2024-01-25T18:00:22.948Z,4.60
2024-01-25T18:02:50.885Z,4.57
2024-01-25T18:05:18.639Z,4.53
2024-01-25T18:07:46.103Z,4.52
2024-01-25T18:10:13.638Z,4.50
2024-01-25T18:12:43.284Z,4.50
2024-01-25T18:15:11.262Z,4.47
2024-01-25T18:17:38.844Z,4.45
2024-01-25T18:20:06.828Z,4.46
2024-01-25T18:22:34.762Z,4.46
2024-01-25T18:25:02.484Z,4.44
2024-01-25T18:27:30.078Z,4.41
2024-01-25T18:29:57.612Z,4.40
2024-01-25T18:32:25.212Z,4.42
2024-01-25T18:34:52.925Z,4.44
2024-01-25T18:37:20.852Z,4.41
2024-01-25T18:39:48.568Z,4.41
2024-01-25T18:42:16.146Z,4.40
2024-01-25T18:44:43.688Z,4.42
2024-01-25T18:47:11.267Z,4.43
2024-01-25T18:49:38.975Z,4.41
2024-01-25T18:52:06.787Z,4.40
2024-01-25T18:54:34.375Z,4.40
2024-01-25T18:57:02.037Z,4.42
2024-01-25T18:59:30.276Z,4.41
2024-01-25T19:01:58.565Z,4.38
2024-01-25T19:04:26.362Z,4.36
2024-01-25T19:06:54.077Z,4.37
2024-01-25T19:09:21.777Z,4.38
2024-01-25T19:11:49.306Z,4.37
2024-01-25T19:14:16.921Z,4.34
2024-01-25T19:16:44.451Z,4.32
2024-01-25T19:19:12.021Z,4.31
2024-01-25T19:21:40.045Z,4.32
2024-01-25T19:24:07.586Z,4.31
2024-01-25T19:26:35.137Z,4.27
2024-01-25T19:29:02.774Z,4.25
2024-01-25T19:31:30.305Z,4.24
2024-01-25T19:33:58.059Z,4.25
2024-01-25T19:36:25.883Z,4.28
2024-01-25T19:38:53.583Z,4.28
2024-01-25T19:41:21.059Z,4.26
2024-01-25T19:43:48.633Z,4.24
2024-01-25T19:46:16.507Z,4.22
2024-01-25T19:48:44.809Z,4.21
2024-01-25T19:51:13.501Z,4.23
2024-01-25T19:53:41.053Z,4.22
2024-01-25T19:56:09.004Z,4.19
2024-01-25T19:58:36.779Z,4.15
2024-01-25T20:01:04.444Z,4.14
2024-01-25T20:03:32.297Z,4.16
2024-01-25T20:05:59.949Z,4.19
2024-01-25T20:08:27.650Z,4.18
2024-01-25T20:10:55.240Z,4.15
2024-01-25T20:13:22.781Z,4.11
2024-01-25T20:15:50.333Z,4.11
2024-01-25T20:18:18.030Z,4.12
2024-01-25T20:20:49.081Z,4.12
2024-01-25T20:23:17.101Z,4.13
2024-01-25T20:25:44.704Z,4.13
2024-01-25T20:28:12.316Z,4.13
2024-01-25T20:30:40.318Z,4.15
2024-01-25T20:33:08.327Z,4.13
2024-01-25T20:35:36.084Z,4.11
2024-01-25T20:38:03.692Z,4.09
2024-01-25T20:40:31.329Z,4.11
2024-01-25T20:42:58.925Z,4.12
2024-01-25T20:45:26.574Z,4.12
2024-01-25T20:47:54.169Z,4.13
2024-01-25T20:50:29.619Z,4.12
2024-01-25T20:53:02.578Z,4.15
2024-01-25T20:55:30.139Z,4.17
2024-01-25T20:57:57.913Z,4.18
2024-01-25T21:00:25.518Z,4.17
2024-01-25T21:02:53.066Z,4.17
2024-01-25T21:05:20.627Z,4.18
2024-01-25T21:07:48.178Z,4.21
2024-01-25T21:10:15.666Z,4.22
2024-01-25T21:12:43.295Z,4.22
2024-01-25T21:15:11.037Z,4.22
2024-01-25T21:17:38.546Z,4.22
2024-01-25T21:20:06.151Z,4.24
2024-01-25T21:22:33.650Z,4.26
2024-01-25T21:25:01.182Z,4.27
2024-01-25T21:27:28.804Z,4.26
2024-01-25T21:29:56.403Z,4.27
2024-01-25T21:32:23.940Z,4.29
2024-01-25T21:34:51.712Z,4.29
2024-01-25T21:37:20.023Z,4.30
2024-01-25T21:39:47.531Z,4.29
2024-01-25T21:42:15.120Z,4.29
2024-01-25T21:44:42.671Z,4.31
2024-01-25T21:47:10.228Z,4.33
2024-01-25T21:49:37.848Z,4.32
2024-01-25T21:52:05.850Z,4.30
2024-01-25T21:54:33.833Z,4.28
2024-01-25T21:57:01.567Z,4.27
2024-01-25T21:59:29.408Z,4.28
2024-01-25T22:01:57.018Z,4.27
2024-01-25T22:04:25.088Z,4.23
2024-01-25T22:06:53.175Z,4.17
2024-01-25T22:09:20.906Z,4.11
2024-01-25T22:11:48.418Z,4.05
2024-01-25T22:14:15.992Z,3.93
2024-01-25T22:16:43.536Z,3.80
2024-01-25T22:19:11.727Z,3.70
2024-01-25T22:21:39.273Z,3.67
2024-01-25T22:24:07.015Z,3.60
2024-01-25T22:26:34.613Z,3.53
2024-01-25T22:29:02.448Z,3.50
2024-01-25T22:31:30.043Z,3.49
2024-01-25T22:33:57.720Z,3.50
2024-01-25T22:36:25.328Z,3.54
2024-01-25T22:38:52.891Z,3.57
2024-01-25T22:41:20.503Z,3.57
2024-01-25T22:43:48.013Z,3.58
2024-01-25T22:46:15.513Z,3.60
2024-01-25T22:48:43.079Z,3.59
2024-01-25T22:51:10.684Z,3.55
2024-01-25T22:53:39.661Z,3.54
2024-01-25T22:56:07.425Z,3.53
2024-01-25T22:58:35.341Z,3.54
2024-01-25T23:01:03.514Z,3.55
2024-01-25T23:03:31.532Z,3.53
2024-01-25T23:05:59.156Z,3.50
2024-01-25T23:08:26.714Z,3.47
2024-01-25T23:10:54.432Z,3.48
2024-01-25T23:13:22.050Z,3.45
2024-01-25T23:15:49.854Z,3.42
2024-01-25T23:18:18.298Z,3.39
2024-01-25T23:20:45.933Z,3.38
2024-01-25T23:23:13.560Z,3.38
2024-01-25T23:25:41.382Z,3.39
2024-01-25T23:28:08.890Z,3.38
2024-01-25T23:30:36.590Z,3.36
2024-01-25T23:33:04.442Z,3.35
2024-01-25T23:35:32.076Z,3.35
2024-01-25T23:37:59.570Z,3.32
2024-01-25T23:40:27.378Z,3.30
2024-01-25T23:42:55.253Z,3.30
2024-01-25T23:45:22.884Z,3.31
2024-01-25T23:47:50.500Z,3.32
2024-01-25T23:50:18.637Z,3.30
2024-01-25T23:52:46.731Z,3.31
2024-01-25T23:55:14.230Z,3.32
2024-01-25T23:57:41.807Z,3.33
